Time,TemperatureF,DewpointF,PressureIn,WindDirection,WindDirectionDegrees,WindSpeedMPH,WindSpeedGustMPH,Humidity,HourlyPrecipIn,Conditions,Clouds,dailyrainin,SoftwareType,DateUTC
2013-02-10 00:00:00,34.4,32.3,30.09,West,262,0.0,0.0,92,0.00,,,0.00,LWC V2.11 B50,2013-02-10 08:00:00,
2013-02-10 00:10:00,34.4,32.3,30.09,West,270,0.0,0.0,92,0.00,,,0.00,LWC V2.11 B50,2013-02-10 08:10:00,
2013-02-10 00:20:00,34.4,32.3,30.09,West,270,0.0,0.0,92,0.00,,,0.00,LWC V2.11 B50,2013-02-10 08:20:00,
2013-02-10 00:30:00,34.4,32.3,30.09,West,270,0.0,0.0,92,0.00,,,0.00,LWC V2.11 B50,2013-02-10 08:30:00,
2013-02-10 00:40:00,33.9,31.8,30.09,West,270,0.0,2.0,92,0.00,,,0.00,LWC V2.11 B50,2013-02-10 08:40:00,
2013-02-10 00:50:00,33.9,31.8,30.09,West,270,0.0,2.0,92,0.00,,,0.00,LWC V2.11 B50,2013-02-10 08:50:00,
2013-02-10 01:00:00,33.9,31.8,30.09,West,270,0.0,2.0,92,0.00,,,0.00,LWC V2.11 B50,2013-02-10 09:00:00,
2013-02-10 01:10:00,34.3,32.5,30.09,West,270,0.0,0.0,93,0.00,,,0.00,LWC V2.11 B50,2013-02-10 09:10:00,
2013-02-10 01:20:00,34.3,32.5,30.09,West,270,0.0,0.0,93,0.00,,,0.00,LWC V2.11 B50,2013-02-10 09:20:00,
2013-02-10 01:30:00,34.3,32.5,30.09,West,270,0.0,0.0,93,0.00,,,0.00,LWC V2.11 B50,2013-02-10 09:30:00,
2013-02-10 01:40:00,33.8,32.0,30.08,West,270,0.0,0.0,93,0.00,,,0.00,LWC V2.11 B50,2013-02-10 09:40:00,
2013-02-10 01:50:00,33.8,32.0,30.08,West,270,0.0,0.0,93,0.00,,,0.00,LWC V2.11 B50,2013-02-10 09:50:00,
2013-02-10 02:00:00,33.8,32.0,30.08,West,270,0.0,0.0,93,0.00,,,0.00,LWC V2.11 B50,2013-02-10 10:00:00,
2013-02-10 02:10:00,33.1,31.3,30.09,West,270,0.0,0.0,93,0.00,,,0.00,LWC V2.11 B50,2013-02-10 10:10:00,
2013-02-10 02:20:00,33.1,31.3,30.09,West,270,0.0,0.0,93,0.00,,,0.00,LWC V2.11 B50,2013-02-10 10:20:00,
2013-02-10 02:30:00,33.1,31.3,30.09,West,270,0.0,0.0,93,0.00,,,0.00,LWC V2.11 B50,2013-02-10 10:30:00,
2013-02-10 02:40:00,33.9,32.1,30.09,West,270,0.0,0.0,93,0.00,,,0.00,LWC V2.11 B50,2013-02-10 10:40:00,
2013-02-10 02:50:00,33.9,32.1,30.09,West,270,0.0,0.0,93,0.00,,,0.00,LWC V2.11 B50,2013-02-10 10:50:00,
2013-02-10 03:00:00,34.1,32.3,30.08,West,270,0.0,0.0,93,0.00,,,0.00,LWC V2.11 B50,2013-02-10 11:00:00,
2013-02-10 03:10:00,34.1,32.3,30.08,West,270,0.0,0.0,93,0.00,,,0.00,LWC V2.11 B50,2013-02-10 11:10:00,
2013-02-10 03:20:00,34.1,32.3,30.08,West,270,0.0,0.0,93,0.00,,,0.00,LWC V2.11 B50,2013-02-10 11:20:00,
2013-02-10 03:30:00,32.8,31.0,30.08,West,270,0.0,0.0,93,0.00,,,0.00,LWC V2.11 B50,2013-02-10 11:30:00,
2013-02-10 03:40:00,32.8,31.0,30.08,West,270,0.0,0.0,93,0.00,,,0.00,LWC V2.11 B50,2013-02-10 11:40:00,
2013-02-10 03:50:00,32.9,31.1,30.08,West,261,0.0,0.0,93,0.00,,,0.00,LWC V2.11 B50,2013-02-10 11:50:00,
2013-02-10 04:00:00,32.2,30.4,30.08,West,261,0.0,0.0,93,0.00,,,0.00,LWC V2.11 B50,2013-02-10 12:00:00,
2013-02-10 04:15:00,31.9,30.1,30.09,West,261,0.0,0.0,93,0.00,,,0.00,LWC V2.11 B50,2013-02-10 12:15:00,
2013-02-10 04:30:00,31.9,30.1,30.09,West,262,0.0,0.0,93,0.00,,,0.00,LWC V2.11 B50,2013-02-10 12:30:00,
2013-02-10 04:45:00,31.7,29.9,30.09,West,262,0.0,0.0,93,0.00,,,0.00,LWC V2.11 B50,2013-02-10 12:45:00,
2013-02-10 05:00:00,31.6,29.8,30.09,West,261,0.0,0.0,93,0.00,,,0.00,LWC V2.11 B50,2013-02-10 13:00:00,
2013-02-10 05:15:00,31.4,29.6,30.09,West,261,0.0,0.0,93,0.00,,,0.00,LWC V2.11 B50,2013-02-10 13:15:00,
2013-02-10 05:30:00,31.6,29.8,30.09,West,261,0.0,0.0,93,0.00,,,0.00,LWC V2.11 B50,2013-02-10 13:30:00,
2013-02-10 05:45:00,31.4,29.9,30.09,West,262,0.0,0.0,94,0.00,,,0.00,LWC V2.11 B50,2013-02-10 13:45:00,
2013-02-10 06:00:00,32.1,30.6,30.09,West,262,0.0,0.0,94,0.00,,,0.00,LWC V2.11 B50,2013-02-10 14:00:00,
2013-02-10 06:15:00,31.3,29.5,30.10,West,262,0.0,0.0,93,0.00,,,0.00,LWC V2.11 B50,2013-02-10 14:15:00,
2013-02-10 06:30:00,31.2,29.7,30.10,West,261,0.0,0.0,94,0.00,,,0.00,LWC V2.11 B50,2013-02-10 14:30:00,
2013-02-10 06:45:00,31.0,29.2,30.10,West,262,0.0,0.0,93,0.00,,,0.00,LWC V2.11 B50,2013-02-10 14:45:00,
2013-02-10 07:00:00,30.8,29.0,30.10,West,262,0.0,0.0,93,0.00,,,0.00,LWC V2.11 B50,2013-02-10 15:00:00,
2013-02-10 07:15:00,30.7,28.9,30.11,West,262,0.0,0.0,93,0.00,,,0.00,LWC V2.11 B50,2013-02-10 15:15:00,
2013-02-10 07:30:00,31.4,29.9,30.11,West,262,0.0,0.0,94,0.00,,,0.00,LWC V2.11 B50,2013-02-10 15:30:00,
2013-02-10 07:45:00,31.8,30.3,30.11,West,261,0.0,0.0,94,0.00,,,0.00,LWC V2.11 B50,2013-02-10 15:45:00,
2013-02-10 08:00:00,32.1,30.6,30.11,West,262,0.0,0.0,94,0.00,,,0.00,LWC V2.11 B50,2013-02-10 16:00:00,
2013-02-10 08:15:00,32.8,31.3,30.11,West,262,0.0,0.0,94,0.00,,,0.00,LWC V2.11 B50,2013-02-10 16:15:00,
2013-02-10 08:30:00,33.4,31.9,30.11,West,262,0.0,0.0,94,0.00,,,0.00,LWC V2.11 B50,2013-02-10 16:30:00,
2013-02-10 08:45:00,34.7,33.2,30.11,West,262,0.0,0.0,94,0.00,,,0.00,LWC V2.11 B50,2013-02-10 16:45:00,
2013-02-10 09:00:00,35.3,34.0,30.11,West,261,0.0,0.0,95,0.00,,,0.00,LWC V2.11 B50,2013-02-10 17:00:00,
2013-02-10 09:15:00,36.8,35.5,30.12,West,262,0.0,0.0,95,0.00,,,0.00,LWC V2.11 B50,2013-02-10 17:15:00,
2013-02-10 09:30:00,38.2,36.9,30.11,West,262,0.0,0.0,95,0.00,,,0.00,LWC V2.11 B50,2013-02-10 17:30:00,
2013-02-10 09:45:00,39.8,37.9,30.11,NE,48,0.0,2.0,93,0.00,,,0.00,LWC V2.11 B50,2013-02-10 17:45:00,
2013-02-10 10:00:00,42.8,37.7,30.12,NE,52,0.0,0.0,82,0.00,,,0.00,LWC V2.11 B50,2013-02-10 18:00:00,
2013-02-10 10:15:00,43.3,37.9,30.12,NE,52,0.0,0.0,81,0.00,,,0.00,LWC V2.11 B50,2013-02-10 18:15:00,
2013-02-10 10:30:00,45.2,38.4,30.12,NE,52,0.0,1.0,77,0.00,,,0.00,LWC V2.11 B50,2013-02-10 18:30:00,
2013-02-10 10:53:00,48.2,39.2,30.12,ESE,119,0.0,0.0,71,0.00,,,0.00,LWC V2.11 B50,2013-02-10 18:53:00,
2013-02-10 11:08:00,49.8,39.7,30.12,SE,128,0.0,0.0,68,0.00,,,0.00,LWC V2.11 B50,2013-02-10 19:08:00,
2013-02-10 11:23:00,50.9,38.3,30.11,SE,136,0.0,0.0,62,0.00,,,0.00,LWC V2.11 B50,2013-02-10 19:23:00,
2013-02-10 11:38:00,51.7,38.7,30.10,SSE,152,0.0,0.0,61,0.00,,,0.00,LWC V2.11 B50,2013-02-10 19:38:00,
2013-02-10 11:53:00,52.6,39.5,30.10,South,178,0.0,0.0,61,0.00,,,0.00,LWC V2.11 B50,2013-02-10 19:53:00,
2013-02-10 12:08:00,53.5,37.7,30.09,SSE,152,1.0,3.0,55,0.00,,,0.00,LWC V2.11 B50,2013-02-10 20:08:00,
2013-02-10 12:23:00,54.1,37.4,30.09,SE,146,2.0,4.0,53,0.00,,,0.00,LWC V2.11 B50,2013-02-10 20:23:00,
2013-02-10 12:38:00,54.4,37.6,30.08,South,188,2.0,3.0,53,0.00,,,0.00,LWC V2.11 B50,2013-02-10 20:38:00,
2013-02-10 12:53:00,54.3,36.6,30.08,South,186,1.0,5.0,51,0.00,,,0.00,LWC V2.11 B50,2013-02-10 20:53:00,
2013-02-10 13:08:00,53.9,35.7,30.08,South,187,0.0,3.0,50,0.00,,,0.00,LWC V2.11 B50,2013-02-10 21:08:00,
2013-02-10 13:23:00,54.6,34.8,30.07,South,186,3.0,3.0,47,0.00,,,0.00,LWC V2.11 B50,2013-02-10 21:23:00,
2013-02-10 13:38:00,55.9,34.9,30.07,SSE,168,1.0,3.0,45,0.00,,,0.00,LWC V2.11 B50,2013-02-10 21:38:00,
2013-02-10 13:53:00,56.9,35.2,30.07,SSE,157,0.0,2.0,44,0.00,,,0.00,LWC V2.11 B50,2013-02-10 21:53:00,
2013-02-10 14:08:00,56.8,35.1,30.07,South,180,0.0,0.0,44,0.00,,,0.00,LWC V2.11 B50,2013-02-10 22:08:00,
2013-02-10 14:23:00,55.8,36.4,30.06,South,180,1.0,2.0,48,0.00,,,0.00,LWC V2.11 B50,2013-02-10 22:23:00,
2013-02-10 14:38:00,55.1,35.2,30.06,SE,142,1.0,4.0,47,0.00,,,0.00,LWC V2.11 B50,2013-02-10 22:38:00,
2013-02-10 14:53:00,55.1,35.8,30.06,SSE,162,0.0,4.0,48,0.00,,,0.00,LWC V2.11 B50,2013-02-10 22:53:00,
2013-02-10 15:08:00,55.0,33.5,30.06,SE,142,3.0,5.0,44,0.00,,,0.00,LWC V2.11 B50,2013-02-10 23:08:00,
2013-02-10 15:23:00,54.6,37.8,30.06,SSE,153,0.0,0.0,53,0.00,,,0.00,LWC V2.11 B50,2013-02-10 23:23:00,
2013-02-10 15:38:00,54.0,39.1,30.06,SSE,157,0.0,0.0,57,0.00,,,0.00,LWC V2.11 B50,2013-02-10 23:38:00,
2013-02-10 15:53:00,53.9,37.2,30.06,SW,222,0.0,0.0,53,0.00,,,0.00,LWC V2.11 B50,2013-02-10 23:53:00,
2013-02-10 16:08:00,53.3,36.1,30.06,West,273,0.0,0.0,52,0.00,,,0.00,LWC V2.11 B50,2013-02-11 00:08:00,
2013-02-10 16:23:00,52.6,35.5,30.06,West,273,0.0,0.0,52,0.00,,,0.00,LWC V2.11 B50,2013-02-11 00:23:00,
2013-02-10 16:38:00,52.1,36.0,30.06,West,274,0.0,0.0,54,0.00,,,0.00,LWC V2.11 B50,2013-02-11 00:38:00,
2013-02-10 16:53:00,51.0,38.4,30.06,West,274,0.0,0.0,62,0.00,,,0.00,LWC V2.11 B50,2013-02-11 00:53:00,
2013-02-10 17:08:00,50.3,39.0,30.06,West,273,0.0,0.0,65,0.00,,,0.00,LWC V2.11 B50,2013-02-11 01:08:00,
2013-02-10 17:23:00,49.5,39.0,30.06,West,273,0.0,0.0,67,0.00,,,0.00,LWC V2.11 B50,2013-02-11 01:23:00,
2013-02-10 17:38:00,48.6,39.3,30.06,West,274,0.0,0.0,70,0.00,,,0.00,LWC V2.11 B50,2013-02-11 01:38:00,
2013-02-10 17:53:00,46.8,39.6,30.06,West,274,0.0,0.0,76,0.00,,,0.00,LWC V2.11 B50,2013-02-11 01:53:00,
2013-02-10 18:08:00,45.5,38.4,30.06,West,273,0.0,0.0,76,0.00,,,0.00,LWC V2.11 B50,2013-02-11 02:08:00,
2013-02-10 18:23:00,44.6,38.5,30.06,West,273,0.0,0.0,79,0.00,,,0.00,LWC V2.11 B50,2013-02-11 02:23:00,
2013-02-10 18:38:00,43.7,38.3,30.06,West,274,0.0,0.0,81,0.00,,,0.00,LWC V2.11 B50,2013-02-11 02:38:00,
2013-02-10 18:53:00,42.7,37.6,30.07,West,274,0.0,0.0,82,0.00,,,0.00,LWC V2.11 B50,2013-02-11 02:53:00,
2013-02-10 19:08:00,41.9,36.8,30.07,West,274,0.0,0.0,82,0.00,,,0.00,LWC V2.11 B50,2013-02-11 03:08:00,
2013-02-10 19:23:00,41.1,36.6,30.07,West,274,0.0,0.0,84,0.00,,,0.00,LWC V2.11 B50,2013-02-11 03:23:00,
2013-02-10 19:38:00,40.7,36.5,30.07,West,273,0.0,0.0,85,0.00,,,0.00,LWC V2.11 B50,2013-02-11 03:38:00,
2013-02-10 19:53:00,40.6,37.3,30.07,West,274,0.0,0.0,88,0.00,,,0.00,LWC V2.11 B50,2013-02-11 03:53:00,
2013-02-10 20:08:00,40.6,37.3,30.08,West,274,0.0,0.0,88,0.00,,,0.00,LWC V2.11 B50,2013-02-11 04:08:00,
2013-02-10 20:23:00,40.0,36.4,30.07,West,274,0.0,0.0,87,0.00,,,0.00,LWC V2.11 B50,2013-02-11 04:23:00,
2013-02-10 20:38:00,39.6,36.3,30.08,West,273,0.0,0.0,88,0.00,,,0.00,LWC V2.11 B50,2013-02-11 04:38:00,
2013-02-10 20:53:00,39.1,35.9,30.08,West,274,0.0,0.0,88,0.00,,,0.00,LWC V2.11 B50,2013-02-11 04:53:00,
2013-02-10 21:08:00,39.0,36.3,30.08,West,274,0.0,0.0,90,0.00,,,0.00,LWC V2.11 B50,2013-02-11 05:08:00,
2013-02-10 21:23:00,38.7,36.0,30.08,West,274,0.0,0.0,90,0.00,,,0.00,LWC V2.11 B50,2013-02-11 05:23:00,
2013-02-10 21:38:00,37.9,35.0,30.09,West,274,0.0,0.0,89,0.00,,,0.00,LWC V2.11 B50,2013-02-11 05:38:00,
2013-02-10 21:53:00,37.7,35.0,30.09,West,273,0.0,0.0,90,0.00,,,0.00,LWC V2.11 B50,2013-02-11 05:53:00,
2013-02-10 22:08:00,37.5,34.8,30.09,West,274,0.0,0.0,90,0.00,,,0.00,LWC V2.11 B50,2013-02-11 06:08:00,
2013-02-10 22:23:00,37.5,35.1,30.09,West,273,0.0,0.0,91,0.00,,,0.00,LWC V2.11 B50,2013-02-11 06:23:00,
2013-02-10 22:38:00,37.7,35.3,30.09,West,274,0.0,0.0,91,0.00,,,0.00,LWC V2.11 B50,2013-02-11 06:38:00,
2013-02-10 22:53:00,37.0,34.6,30.10,West,274,0.0,0.0,91,0.00,,,0.00,LWC V2.11 B50,2013-02-11 06:53:00,
2013-02-10 23:08:00,36.8,34.4,30.10,West,274,0.0,0.0,91,0.00,,,0.00,LWC V2.11 B50,2013-02-11 07:08:00,
2013-02-10 23:23:00,36.7,34.3,30.10,North,0,0.0,0.0,91,0.00,,,0.00,LWC V2.11 B50,2013-02-11 07:23:00,
2013-02-10 23:38:00,36.3,33.9,30.10,North,0,0.0,0.0,91,0.00,,,0.00,LWC V2.11 B50,2013-02-11 07:38:00,
2013-02-10 23:53:00,36.0,33.6,30.10,North,0,0.0,0.0,91,0.00,,,0.00,LWC V2.11 B50,2013-02-11 07:53:00,